Time;durP1;ratioP1;P1;durP2;ratioP2;P2;SDS_P1;SDS_P2;PMS_P1;PMS_P2;Temp;Humidity;BMP_temperature;BMP_pressure;BME280_temperature;BME280_humidity;BME280_pressure;Samples;Min_cycle;Max_cycle;Signal;HPM_P1;HPM_P2
2022/08/05 00:00:12;;;;;;;4.40;3.50;;;;;;;17.62;66.83;96760.49;108611;1268;22589;-85
2022/08/05 00:03:03;;;;;;;4.50;4.00;;;;;;;17.59;66.76;96760.85;108451;1268;22538;-86
2022/08/05 00:05:39;;;;;;;4.10;3.70;;;;;;;17.57;66.76;96760.45;107232;1268;1709428;-87
2022/08/05 00:08:12;;;;;;;6.70;4.20;;;;;;;17.67;66.82;96764.11;108616;1267;24963;-86
2022/08/05 00:10:44;;;;;;;6.20;3.80;;;;;;;17.78;66.60;96758.75;108659;1266;23362;-86
2022/08/05 00:13:15;;;;;;;5.60;3.70;;;;;;;17.79;66.44;96754.19;108537;1268;23703;-86
2022/08/05 00:15:47;;;;;;;4.50;4.00;;;;;;;17.73;66.38;96754.02;108539;1267;51067;-86
2022/08/05 00:18:17;;;;;;;4.40;3.80;;;;;;;17.67;66.54;96751.25;108616;1267;22627;-87
2022/08/05 00:20:49;;;;;;;5.20;4.30;;;;;;;17.64;66.60;96753.45;108570;1267;23290;-87
2022/08/05 00:23:24;;;;;;;5.50;4.10;;;;;;;17.68;66.61;96749.45;108657;1267;25389;-89
2022/08/05 00:25:55;;;;;;;6.70;4.50;;;;;;;17.72;66.46;96747.16;108382;1267;105548;-87
2022/08/05 00:28:26;;;;;;;4.70;4.00;;;;;;;17.77;66.53;96748.84;108665;1267;22590;-87
2022/08/05 00:30:57;;;;;;;5.80;4.30;;;;;;;17.78;66.47;96750.92;108583;1267;23917;-87
2022/08/05 00:33:28;;;;;;;5.00;4.10;;;;;;;17.77;66.47;96748.15;108648;1267;24273;-87
2022/08/05 00:35:59;;;;;;;5.80;4.30;;;;;;;17.78;66.47;96752.77;108476;1268;32142;-88
2022/08/05 00:38:30;;;;;;;5.90;4.40;;;;;;;17.77;66.49;96750.04;108599;1267;22543;-87
2022/08/05 00:41:04;;;;;;;5.70;4.70;;;;;;;17.73;66.59;96748.11;108665;1267;25405;-87
2022/08/05 00:43:35;;;;;;;6.00;4.50;;;;;;;17.69;66.71;96746.96;108602;1267;25277;-87
2022/08/05 00:46:07;;;;;;;4.50;3.90;;;;;;;17.66;66.84;96745.06;108547;1268;39883;-87
2022/08/05 00:48:38;;;;;;;4.10;3.70;;;;;;;17.64;66.83;96748.04;108634;1268;22528;-86
2022/08/05 00:51:09;;;;;;;4.80;4.30;;;;;;;17.69;66.89;96745.50;108562;1268;25281;-87
2022/08/05 00:53:40;;;;;;;7.90;4.70;;;;;;;17.70;66.91;96741.19;108645;1267;22581;-87
2022/08/05 00:56:12;;;;;;;6.40;4.20;;;;;;;17.63;67.23;96736.20;108537;1268;35885;-87
2022/08/05 00:58:43;;;;;;;5.80;4.50;;;;;;;17.51;67.34;96735.23;108579;1268;23847;-86
2022/08/05 01:01:15;;;;;;;5.00;4.50;;;;;;;17.45;67.87;96733.81;108643;1267;22546;-87
2022/08/05 01:03:46;;;;;;;6.60;5.30;;;;;;;17.43;68.16;96730.76;108637;1266;22565;-86
2022/08/05 01:06:17;;;;;;;5.40;4.80;;;;;;;17.43;68.29;96731.29;108505;1267;33016;-86
2022/08/05 01:08:49;;;;;;;5.20;4.50;;;;;;;17.51;68.28;96734.15;108620;1268;22541;-86
2022/08/05 01:11:27;;;;;;;7.00;4.80;;;;;;;17.57;68.20;96727.66;108594;1267;22568;-85
2022/08/05 01:14:10;;;;;;;6.60;4.90;;;;;;;17.65;68.19;96730.90;108577;1267;22545;-85
2022/08/05 01:16:48;;;;;;;5.90;5.40;;;;;;;17.70;68.01;96728.06;108348;1267;131292;-86
2022/08/05 01:19:31;;;;;;;5.50;4.90;;;;;;;17.74;67.84;96724.75;108673;1267;24204;-86
2022/08/05 01:22:18;;;;;;;5.50;4.60;;;;;;;17.77;67.73;96720.64;108652;1266;22647;-85
2022/08/05 01:25:11;;;;;;;6.10;4.80;;;;;;;17.81;67.74;96719.20;108632;1267;23375;-85
2022/08/05 01:28:14;;;;;;;6.20;5.40;;;;;;;17.79;67.65;96718.41;108533;1267;35664;-85
2022/08/05 01:30:51;;;;;;;5.80;5.00;;;;;;;17.79;67.73;96716.34;108660;1267;22532;-86
2022/08/05 01:33:29;;;;;;;7.30;5.10;;;;;;;17.79;67.82;96714.06;108643;1268;22520;-86
2022/08/05 01:36:02;;;;;;;6.00;4.90;;;;;;;17.77;67.84;96708.84;108582;1265;27638;-86
2022/08/05 01:38:36;;;;;;;4.90;4.30;;;;;;;17.71;67.96;96704.91;108615;1267;23666;-86
2022/08/05 01:41:08;;;;;;;8.30;4.90;;;;;;;17.62;68.09;96704.83;108667;1267;22546;-86
2022/08/05 01:43:39;;;;;;;6.60;4.90;;;;;;;17.60;68.15;96703.89;108565;1267;22546;-88
2022/08/05 01:46:11;;;;;;;5.20;4.70;;;;;;;17.56;68.28;96703.95;108557;1267;40812;-85
2022/08/05 01:48:44;;;;;;;6.30;5.30;;;;;;;17.44;68.35;96701.84;108654;1267;24205;-86
2022/08/05 01:51:17;;;;;;;7.50;5.00;;;;;;;17.34;68.64;96701.35;108668;1267;22520;-86
2022/08/05 01:53:54;;;;;;;5.70;5.00;;;;;;;17.34;68.75;96706.48;108629;1267;22538;-86
2022/08/05 01:56:27;;;;;;;5.10;4.60;;;;;;;17.36;68.65;96704.49;108437;1268;37123;-87
2022/08/05 01:59:00;;;;;;;5.60;4.50;;;;;;;17.36;68.66;96703.14;108620;1265;22840;-87
2022/08/05 02:01:34;;;;;;;5.00;4.50;;;;;;;17.37;68.66;96702.40;108696;1267;22574;-86
2022/08/05 02:04:06;;;;;;;5.20;4.70;;;;;;;17.38;68.58;96697.64;108659;1266;23805;-86
2022/08/05 02:06:38;;;;;;;5.80;5.20;;;;;;;17.40;68.58;96696.88;108537;1268;37513;-86
2022/08/05 02:09:09;;;;;;;7.00;5.40;;;;;;;17.38;68.72;96694.58;108666;1268;22526;-86
2022/08/05 02:11:48;;;;;;;6.40;5.10;;;;;;;17.27;68.76;96696.15;108664;1267;22536;-86
2022/08/05 02:14:27;;;;;;;7.10;5.30;;;;;;;17.14;69.14;96692.40;108684;1267;22547;-87
2022/08/05 02:17:08;;;;;;;8.30;5.30;;;;;;;17.02;69.57;96691.21;108543;1267;30583;-86
2022/08/05 02:19:44;;;;;;;6.00;5.40;;;;;;;16.94;70.21;96689.09;108751;1267;22548;-86
2022/08/05 02:22:24;;;;;;;6.80;5.10;;;;;;;16.94;70.43;96688.55;108610;1267;22579;-86
2022/08/05 02:25:01;;;;;;;6.20;5.30;;;;;;;16.92;70.69;96691.99;108676;1267;22553;-86
2022/08/05 02:27:38;;;;;;;5.70;5.20;;;;;;;16.91;70.79;96685.98;108586;1267;33619;-86
2022/08/05 02:30:14;;;;;;;5.90;5.10;;;;;;;16.91;70.77;96686.44;108657;1267;22583;-87
2022/08/05 02:32:51;;;;;;;6.80;5.20;;;;;;;16.88;70.69;96686.05;108687;1267;22535;-87
2022/08/05 02:35:24;;;;;;;7.80;4.80;;;;;;;16.82;70.83;96684.99;108598;1267;37544;-86
2022/08/05 02:37:58;;;;;;;6.00;5.00;;;;;;;16.81;70.96;96684.87;108700;1267;22719;-88
2022/08/05 02:40:31;;;;;;;7.10;5.10;;;;;;;16.82;71.11;96681.84;108633;1267;22565;-87
2022/08/05 02:43:04;;;;;;;6.40;5.30;;;;;;;16.91;71.02;96684.84;108674;1267;24971;-86
2022/08/05 02:45:37;;;;;;;5.80;4.60;;;;;;;17.00;70.95;96685.92;108470;1267;94148;-86
2022/08/05 02:48:10;;;;;;;6.60;5.10;;;;;;;17.10;70.93;96685.28;108641;1267;23912;-86
2022/08/05 02:50:45;;;;;;;6.50;5.00;;;;;;;17.21;70.73;96681.28;108663;1268;22551;-86
2022/08/05 02:53:20;;;;;;;6.30;5.00;;;;;;;17.26;70.43;96677.20;108712;1267;22555;-86
2022/08/05 02:55:55;;;;;;;6.30;5.00;;;;;;;17.26;70.37;96674.44;108575;1267;54688;-87
2022/08/05 02:58:29;;;;;;;5.70;4.70;;;;;;;17.28;70.40;96671.48;108659;1267;22552;-87
2022/08/05 03:01:02;;;;;;;5.20;4.70;;;;;;;17.28;70.15;96673.45;108609;1268;22576;-86
2022/08/05 03:03:34;;;;;;;5.30;4.80;;;;;;;17.30;70.28;96671.17;108664;1268;22514;-86
2022/08/05 03:06:06;;;;;;;5.30;4.50;;;;;;;17.33;70.11;96670.45;108501;1265;50130;-86
2022/08/05 03:08:39;;;;;;;9.50;5.20;;;;;;;17.42;69.95;96665.08;108646;1267;24512;-86
2022/08/05 03:11:21;;;;;;;5.00;4.50;;;;;;;17.51;69.67;96663.95;108555;1268;22520;-86
2022/08/05 03:13:54;;;;;;;6.20;4.90;;;;;;;17.58;69.38;96663.44;108680;1268;22973;-86
2022/08/05 03:16:25;;;;;;;5.20;4.50;;;;;;;17.59;69.26;96662.51;108573;1267;45487;-87
2022/08/05 03:18:56;;;;;;;5.60;4.20;;;;;;;17.62;69.18;96663.08;108626;1268;22535;-86
2022/08/05 03:21:27;;;;;;;6.60;4.60;;;;;;;17.74;69.05;96661.14;108652;1267;23225;-85
2022/08/05 03:23:59;;;;;;;5.70;5.00;;;;;;;17.86;68.77;96660.52;108656;1268;22818;-85
2022/08/05 03:26:31;;;;;;;6.90;4.70;;;;;;;17.97;68.53;96662.31;108541;1267;32048;-85
2022/08/05 03:29:03;;;;;;;5.00;4.20;;;;;;;18.00;68.29;96660.52;108617;1268;22671;-85
2022/08/05 03:31:34;;;;;;;6.20;4.70;;;;;;;18.04;68.14;96656.55;108573;1267;22632;-86
2022/08/05 03:34:08;;;;;;;5.70;4.40;;;;;;;18.06;68.04;96657.58;108679;1265;22567;-85
2022/08/05 03:36:40;;;;;;;5.50;4.60;;;;;;;18.09;67.88;96657.84;108625;1268;31294;-84
2022/08/05 03:39:11;;;;;;;5.50;4.60;;;;;;;18.15;67.74;96659.79;108664;1267;22664;-83
2022/08/05 03:41:42;;;;;;;5.70;4.50;;;;;;;18.19;67.57;96657.34;108655;1267;23890;-83
2022/08/05 03:44:14;;;;;;;6.20;4.60;;;;;;;18.22;67.53;96661.45;108584;1267;23512;-84
2022/08/05 03:46:45;;;;;;;4.70;4.10;;;;;;;18.26;67.35;96658.86;108591;1267;70119;-84
2022/08/05 03:49:16;;;;;;;5.60;4.80;;;;;;;18.33;67.24;96659.83;108587;1267;23214;-84
2022/08/05 03:51:56;;;;;;;7.40;4.70;;;;;;;18.40;66.95;96653.77;108642;1268;23164;-85
2022/08/05 03:54:35;;;;;;;5.20;4.50;;;;;;;18.47;66.95;96652.04;108570;1267;22630;-85
2022/08/05 03:57:10;;;;;;;4.80;4.10;;;;;;;18.51;66.74;96647.04;108496;1268;38880;-86
2022/08/05 03:59:46;;;;;;;6.20;4.40;;;;;;;18.58;66.44;96647.13;108636;1268;23698;-84
2022/08/05 04:02:20;;;;;;;5.60;4.30;;;;;;;18.66;66.13;96644.40;108622;1268;26000;-85
2022/08/05 04:04:52;;;;;;;5.30;4.40;;;;;;;18.73;66.02;96646.35;107754;1266;1222857;-84
2022/08/05 04:07:25;;;;;;;4.90;3.90;;;;;;;18.77;65.85;96642.40;108634;1267;29964;-86
2022/08/05 04:09:57;;;;;;;6.40;4.60;;;;;;;18.82;65.62;96645.19;108604;1267;25363;-85
2022/08/05 04:12:28;;;;;;;7.10;4.50;;;;;;;18.87;65.45;96641.27;108592;1268;22608;-85
2022/08/05 04:15:01;;;;;;;5.60;4.50;;;;;;;18.91;65.33;96648.29;108690;1268;22634;-85
2022/08/05 04:17:33;;;;;;;5.60;4.90;;;;;;;18.97;65.20;96645.57;108543;1268;33770;-86
2022/08/05 04:20:07;;;;;;;4.80;4.20;;;;;;;19.06;65.24;96650.86;108611;1267;22668;-85
2022/08/05 04:22:39;;;;;;;5.10;4.30;;;;;;;19.14;64.97;96651.77;108680;1268;25092;-85
2022/08/05 04:25:11;;;;;;;5.30;4.80;;;;;;;19.22;64.81;96652.41;108657;1268;23176;-84
2022/08/05 04:27:43;;;;;;;4.80;4.30;;;;;;;19.34;64.60;96650.73;108570;1268;31167;-85
2022/08/05 04:30:14;;;;;;;6.10;4.60;;;;;;;19.40;64.36;96654.86;108626;1267;22561;-85
2022/08/05 04:32:47;;;;;;;5.10;4.60;;;;;;;19.46;64.18;96655.45;108595;1267;22553;-85
2022/08/05 04:35:19;;;;;;;6.00;4.30;;;;;;;19.52;64.18;96652.64;108668;1268;23828;-85
2022/08/05 04:37:50;;;;;;;4.80;4.40;;;;;;;19.58;63.99;96651.57;108641;1267;22557;-84
2022/08/05 04:40:21;;;;;;;5.00;4.50;;;;;;;19.64;63.96;96648.61;108682;1268;22529;-84
2022/08/05 04:42:53;;;;;;;6.00;4.90;;;;;;;19.74;63.84;96649.21;108686;1268;22548;-84
2022/08/05 04:45:24;;;;;;;7.00;4.70;;;;;;;19.88;63.73;96646.12;108595;1268;27277;-84
2022/08/05 04:48:02;;;;;;;4.80;4.30;;;;;;;20.05;63.25;96647.11;108649;1267;22519;-84
2022/08/05 04:50:42;;;;;;;4.40;4.00;;;;;;;20.36;62.71;96650.58;108676;1268;22641;-84
2022/08/05 04:53:16;;;;;;;5.40;4.60;;;;;;;21.73;61.40;96649.27;108669;1268;25364;-84
2022/08/05 04:55:48;;;;;;;4.90;4.10;;;;;;;23.59;58.96;96641.20;108671;1267;33329;-85
2022/08/05 04:58:19;;;;;;;4.50;4.10;;;;;;;24.97;53.94;96643.66;108624;1267;22702;-86
2022/08/05 05:00:50;;;;;;;4.30;3.90;;;;;;;25.81;51.36;96642.55;108668;1268;22876;-85
2022/08/05 05:03:21;;;;;;;4.20;3.80;;;;;;;26.52;50.03;96643.73;108604;1267;22580;-85
2022/08/05 05:05:54;;;;;;;6.40;4.10;;;;;;;27.29;47.79;96640.38;108426;1268;29435;-84
2022/08/05 05:08:26;;;;;;;4.80;3.60;;;;;;;27.88;46.52;96640.05;108559;1267;23224;-85
2022/08/05 05:10:57;;;;;;;4.00;3.50;;;;;;;28.18;44.56;96638.55;108664;1268;22560;-85
2022/08/05 05:13:29;;;;;;;3.90;3.60;;;;;;;28.47;43.36;96641.69;108514;1268;22534;-85
2022/08/05 05:16:00;;;;;;;4.10;3.70;;;;;;;28.74;42.49;96644.48;108527;1268;31922;-83
2022/08/05 05:18:31;;;;;;;4.10;3.70;;;;;;;29.45;43.44;96647.39;108662;1267;22515;-85
2022/08/05 05:21:03;;;;;;;4.30;3.20;;;;;;;30.60;41.54;96646.35;108644;1266;22607;-85
2022/08/05 05:23:34;;;;;;;4.40;3.60;;;;;;;30.83;38.63;96641.39;108606;1268;22997;-85
2022/08/05 05:26:06;;;;;;;4.80;3.40;;;;;;;30.72;38.25;96645.61;108575;1268;32747;-86
2022/08/05 05:28:37;;;;;;;3.60;3.30;;;;;;;30.25;37.01;96639.66;108616;1268;23844;-86
2022/08/05 05:31:09;;;;;;;5.00;3.40;;;;;;;29.95;37.78;96640.71;108582;1268;22524;-84
2022/08/05 05:33:40;;;;;;;3.90;3.60;;;;;;;29.80;37.36;96644.90;108654;1267;23240;-84
2022/08/05 05:36:12;;;;;;;3.90;3.60;;;;;;;29.75;37.48;96645.50;108324;1267;125986;-85
2022/08/05 05:38:43;;;;;;;3.60;3.30;;;;;;;30.23;37.98;96642.34;108573;1268;22536;-84
2022/08/05 05:41:14;;;;;;;4.20;3.50;;;;;;;30.40;36.57;96646.24;108516;1268;24156;-85
2022/08/05 05:43:45;;;;;;;4.30;3.40;;;;;;;30.49;37.51;96644.67;108561;1267;22461;-85
2022/08/05 05:46:17;;;;;;;3.20;2.90;;;;;;;31.15;36.83;96644.67;108638;1267;32476;-85
2022/08/05 05:48:49;;;;;;;3.30;3.00;;;;;;;31.40;35.82;96643.41;108562;1268;22547;-85
2022/08/05 05:51:25;;;;;;;3.10;2.90;;;;;;;31.46;35.84;96646.59;108610;1268;22554;-84
2022/08/05 05:53:58;;;;;;;3.70;3.00;;;;;;;31.67;35.04;96646.83;108525;1268;24249;-85
2022/08/05 05:56:31;;;;;;;4.50;3.40;;;;;;;31.92;34.91;96649.36;108542;1268;34855;-84
2022/08/05 05:59:04;;;;;;;3.60;3.30;;;;;;;32.01;34.23;96650.23;108586;1268;22553;-85
2022/08/05 06:01:37;;;;;;;3.30;3.00;;;;;;;32.04;34.55;96650.63;108503;1268;23682;-86
2022/08/05 06:04:13;;;;;;;3.30;2.90;;;;;;;32.80;34.50;96651.84;108694;1267;23691;-85
2022/08/05 06:06:47;;;;;;;3.50;3.20;;;;;;;33.55;33.32;96649.21;108426;1267;124305;-85
2022/08/05 06:09:19;;;;;;;3.40;3.10;;;;;;;33.59;32.32;96653.98;108644;1267;22618;-86
2022/08/05 06:11:53;;;;;;;3.00;2.80;;;;;;;33.89;32.38;96658.42;108673;1268;22577;-85
2022/08/05 06:14:25;;;;;;;6.00;2.90;;;;;;;33.91;31.46;96654.45;108610;1268;22536;-80
2022/08/05 06:16:59;;;;;;;5.10;3.20;;;;;;;33.68;31.76;96651.91;108600;1267;33775;-79
2022/08/05 06:19:32;;;;;;;3.60;3.30;;;;;;;33.88;31.49;96654.50;108646;1268;23457;-79
2022/08/05 06:22:06;;;;;;;3.80;3.10;;;;;;;34.17;31.89;96657.59;108725;1267;23860;-79
2022/08/05 06:24:41;;;;;;;3.50;3.20;;;;;;;34.87;30.61;96651.63;108648;1267;22570;-79
2022/08/05 06:27:13;;;;;;;3.80;3.10;;;;;;;34.49;30.00;96652.66;108581;1267;26764;-79
2022/08/05 06:29:45;;;;;;;3.00;2.70;;;;;;;34.43;30.45;96654.16;108613;1267;22566;-79
2022/08/05 06:32:17;;;;;;;3.80;3.20;;;;;;;34.65;30.11;96657.48;108713;1267;22556;-79
2022/08/05 06:34:47;;;;;;;4.20;3.10;;;;;;;34.60;30.67;96659.58;108652;1268;22538;-79
2022/08/05 06:37:19;;;;;;;3.70;2.80;;;;;;;35.11;29.36;96659.52;108576;1267;43722;-80
2022/08/05 06:39:50;;;;;;;4.50;2.70;;;;;;;34.97;29.42;96659.92;108624;1268;22536;-80
2022/08/05 06:42:21;;;;;;;3.30;2.60;;;;;;;34.95;29.64;96655.02;108627;1267;22537;-81
2022/08/05 06:44:52;;;;;;;3.60;2.90;;;;;;;34.94;29.24;96648.80;108435;1268;22914;-77
2022/08/05 06:47:23;;;;;;;2.50;2.30;;;;;;;34.69;30.15;96649.52;108372;1268;31831;-78
2022/08/05 06:49:54;;;;;;;4.40;2.80;;;;;;;35.22;29.12;96646.79;108620;1267;22612;-81
2022/08/05 06:52:25;;;;;;;3.70;2.80;;;;;;;35.54;29.83;96647.96;108422;1268;22638;-77
2022/08/05 06:54:57;;;;;;;3.00;2.70;;;;;;;36.03;28.47;96644.94;108625;1267;22817;-77
2022/08/05 06:57:28;;;;;;;3.90;2.60;;;;;;;35.76;28.71;96643.90;108446;1267;34453;-81
2022/08/05 07:00:02;;;;;;;2.80;2.50;;;;;;;36.26;28.78;96642.94;108459;1268;22632;-81
2022/08/05 07:02:33;;;;;;;2.60;2.40;;;;;;;36.68;28.05;96640.71;108550;1267;23600;-79
2022/08/05 07:05:05;;;;;;;2.70;2.50;;;;;;;36.65;28.26;96639.09;108477;1268;23334;-78
2022/08/05 07:07:36;;;;;;;4.20;3.00;;;;;;;37.15;27.86;96641.75;108589;1268;39998;-79
2022/08/05 07:10:10;;;;;;;3.40;2.70;;;;;;;37.60;27.86;96641.66;108521;1267;24219;-81
2022/08/05 07:18:34;;;;;;;2.50;2.30;;;;;;;40.23;26.24;96648.34;108311;1268;22542;-80
2022/08/05 07:21:07;;;;;;;3.60;2.80;;;;;;;41.22;25.32;96655.16;108466;1268;22552;-77
2022/08/05 07:23:38;;;;;;;2.60;2.50;;;;;;;41.81;23.80;96656.41;108540;1267;22557;-79
2022/08/05 07:26:10;;;;;;;3.00;2.60;;;;;;;42.03;23.99;96654.13;108453;1266;34885;-78
2022/08/05 07:28:41;;;;;;;3.30;2.10;;;;;;;42.85;23.69;96655.95;108572;1266;22670;-79
2022/08/05 07:31:12;;;;;;;2.90;2.60;;;;;;;43.35;22.70;96655.92;108551;1268;22532;-79
2022/08/05 07:33:43;;;;;;;2.70;2.40;;;;;;;43.26;22.60;96650.77;108425;1267;22569;-79
2022/08/05 07:36:14;;;;;;;3.40;2.40;;;;;;;44.51;23.39;96654.13;108498;1268;28274;-79
2022/08/05 07:38:46;;;;;;;2.40;2.20;;;;;;;46.35;22.85;96652.67;108421;1268;22538;-75
2022/08/05 07:41:20;;;;;;;2.50;2.30;;;;;;;47.83;21.37;96653.24;108530;1268;23938;-76
2022/08/05 07:43:52;;;;;;;3.10;2.40;;;;;;;47.50;19.60;96656.41;108477;1267;22584;-76
2022/08/05 07:46:24;;;;;;;3.50;2.40;;;;;;;46.45;19.99;96654.27;108451;1267;29057;-78
2022/08/05 07:48:59;;;;;;;2.50;2.30;;;;;;;47.10;19.87;96652.96;108597;1268;22520;-78
2022/08/05 07:51:31;;;;;;;2.30;2.10;;;;;;;46.76;18.86;96651.48;108501;1268;22644;-78
2022/08/05 07:54:04;;;;;;;2.50;2.30;;;;;;;46.06;19.89;96650.52;108440;1268;25238;-79
2022/08/05 07:56:36;;;;;;;2.80;2.20;;;;;;;46.61;19.70;96652.03;108376;1268;41949;-79
2022/08/05 07:59:08;;;;;;;2.80;2.50;;;;;;;46.77;19.30;96649.61;108586;1268;24240;-79
2022/08/05 08:01:42;;;;;;;3.20;2.30;;;;;;;46.52;18.98;96652.44;108480;1268;23297;-87
2022/08/05 08:04:14;;;;;;;3.90;2.50;;;;;;;46.30;19.06;96653.86;108531;1267;22654;-86
2022/08/05 08:06:45;;;;;;;3.70;2.60;;;;;;;46.09;19.39;96651.23;108588;1268;27834;-86
2022/08/05 08:09:16;;;;;;;4.20;2.40;;;;;;;46.17;18.96;96649.06;108585;1268;22561;-80
2022/08/05 08:11:48;;;;;;;3.10;2.60;;;;;;;45.89;19.23;96648.64;108579;1268;23716;-79
2022/08/05 08:14:21;;;;;;;2.60;2.30;;;;;;;46.08;19.53;96646.96;108523;1268;24233;-79
2022/08/05 08:16:55;;;;;;;2.90;2.50;;;;;;;46.48;19.08;96642.83;108408;1268;27617;-81
2022/08/05 08:19:27;;;;;;;3.80;2.30;;;;;;;46.20;18.67;96645.59;108581;1267;22516;-80
2022/08/05 08:21:58;;;;;;;3.20;2.80;;;;;;;45.84;19.24;96645.30;108516;1268;25384;-80
2022/08/05 08:24:30;;;;;;;2.70;2.40;;;;;;;46.44;19.13;96647.98;108595;1267;23424;-80
2022/08/05 08:27:01;;;;;;;3.30;2.60;;;;;;;47.21;18.84;96651.45;108507;1268;33365;-81
2022/08/05 08:29:33;;;;;;;2.70;2.50;;;;;;;47.54;18.48;96645.97;108542;1268;22526;-78
2022/08/05 08:32:04;;;;;;;2.80;2.60;;;;;;;47.46;17.37;96646.23;108648;1268;22552;-82
2022/08/05 08:34:36;;;;;;;4.20;2.90;;;;;;;46.68;17.94;96646.40;108505;1268;22530;-78
2022/08/05 08:37:07;;;;;;;2.60;2.40;;;;;;;46.74;18.12;96642.73;108408;1267;63907;-77
2022/08/05 08:39:38;;;;;;;2.90;2.70;;;;;;;47.12;18.06;96644.31;108556;1268;22609;-77
2022/08/05 08:42:12;;;;;;;2.50;2.40;;;;;;;47.35;17.55;96640.56;108542;1268;24210;-77
2022/08/05 08:44:44;;;;;;;3.20;2.70;;;;;;;47.86;18.25;96644.83;108569;1268;22617;-77
2022/08/05 08:47:19;;;;;;;2.60;2.40;;;;;;;48.13;17.29;96647.80;108473;1268;55955;-77
2022/08/05 08:49:52;;;;;;;2.50;2.30;;;;;;;47.80;16.98;96644.27;108548;1268;23350;-77
2022/08/05 08:52:26;;;;;;;2.50;2.30;;;;;;;47.68;17.04;96644.76;108478;1268;22557;-77
2022/08/05 08:54:58;;;;;;;2.90;2.70;;;;;;;47.06;17.10;96646.05;108565;1268;22678;-77
2022/08/05 08:57:29;;;;;;;2.50;2.20;;;;;;;46.62;17.63;96641.88;108386;1268;42712;-77
2022/08/05 09:00:03;;;;;;;5.50;2.20;;;;;;;46.32;17.77;96641.61;108659;1268;22476;-76
2022/08/05 09:02:37;;;;;;;4.00;2.30;;;;;;;46.41;17.50;96646.79;108565;1268;22776;-78
2022/08/05 09:05:10;;;;;;;3.20;1.90;;;;;;;46.49;17.76;96642.98;108515;1268;22592;-77
2022/08/05 09:07:42;;;;;;;2.30;2.10;;;;;;;46.82;17.96;96645.79;108495;1268;53932;-78
2022/08/05 09:10:14;;;;;;;3.40;2.30;;;;;;;47.44;17.92;96646.83;108416;1268;22662;-78
2022/08/05 09:12:45;;;;;;;5.00;2.30;;;;;;;46.72;17.02;96654.65;108691;1267;22576;-78
2022/08/05 09:15:17;;;;;;;2.30;2.20;;;;;;;45.57;17.24;96645.02;108565;1268;24299;-78
2022/08/05 09:17:49;;;;;;;3.10;2.70;;;;;;;43.42;17.60;96642.88;108599;1268;24265;-78
2022/08/05 09:20:23;;;;;;;4.90;2.40;;;;;;;41.13;19.40;96634.61;108532;1268;25260;-78
2022/08/05 09:23:19;;;;;;;3.20;2.70;;;;;;;39.98;20.48;96637.32;108529;1268;24233;-78
2022/08/05 09:25:53;;;;;;;3.20;3.00;;;;;;;39.57;21.34;96636.19;108303;1268;48066;-78
2022/08/05 09:28:27;;;;;;;2.80;2.60;;;;;;;37.71;22.24;96632.54;108506;1268;22949;-78
2022/08/05 09:31:03;;;;;;;3.30;3.00;;;;;;;35.69;24.23;96629.84;108432;1268;24237;-78
2022/08/05 09:33:49;;;;;;;2.90;2.40;;;;;;;34.68;25.10;96628.52;108462;1268;23753;-78
2022/08/05 09:36:21;;;;;;;3.70;2.80;;;;;;;33.48;26.89;96623.14;108347;1268;24633;-78
2022/08/05 09:39:01;;;;;;;4.90;3.10;;;;;;;32.63;28.59;96626.77;108492;1268;24220;-78
2022/08/05 09:41:35;;;;;;;3.40;3.10;;;;;;;32.67;29.13;96620.40;108407;1267;23897;-78
2022/08/05 09:44:07;;;;;;;4.40;3.10;;;;;;;32.93;29.33;96619.65;108478;1268;24229;-78
2022/08/05 09:46:40;;;;;;;3.60;3.10;;;;;;;32.97;28.73;96616.02;108312;1268;30036;-78
2022/08/05 09:49:24;;;;;;;3.80;3.20;;;;;;;32.32;29.41;96616.04;108312;1268;24267;-78
2022/08/05 09:51:55;;;;;;;7.30;3.30;;;;;;;31.77;30.10;96614.02;108457;1268;22535;-77
2022/08/05 09:54:34;;;;;;;3.20;2.90;;;;;;;31.68;31.08;96615.27;108535;1268;26016;-79
2022/08/05 09:57:05;;;;;;;4.00;3.20;;;;;;;31.67;31.42;96614.64;108434;1268;28668;-78
2022/08/05 09:59:39;;;;;;;3.70;3.40;;;;;;;31.78;32.08;96613.31;108417;1268;25365;-78
2022/08/05 10:02:12;;;;;;;5.10;3.40;;;;;;;31.88;32.20;96609.93;108378;1268;22556;-78
2022/08/05 10:04:44;;;;;;;5.60;3.60;;;;;;;31.96;32.18;96608.48;108483;1267;22624;-78
2022/08/05 10:07:15;;;;;;;5.50;3.30;;;;;;;31.82;32.02;96606.44;108446;1268;27383;-78
2022/08/05 10:09:57;;;;;;;5.20;3.30;;;;;;;31.96;32.57;96601.88;108541;1268;22771;-78
2022/08/05 10:12:29;;;;;;;4.90;3.30;;;;;;;32.11;33.21;96603.19;108498;1268;23279;-78
2022/08/05 10:15:18;;;;;;;4.20;3.30;;;;;;;31.98;32.53;96603.26;108497;1268;25242;-78
2022/08/05 10:18:06;;;;;;;5.00;3.20;;;;;;;31.91;32.90;96598.36;108384;1268;24268;-78
2022/08/05 10:20:40;;;;;;;3.90;3.20;;;;;;;31.80;33.68;96603.88;108516;1268;22536;-77
2022/08/05 10:23:13;;;;;;;4.50;3.40;;;;;;;32.03;33.72;96605.36;108410;1268;22591;-78
2022/08/05 10:30:09;;;;;;;4.60;3.30;;;;;;;32.21;34.90;96603.78;108616;1267;24263;-77
2022/08/05 10:32:42;;;;;;;3.80;3.50;;;;;;;32.49;35.03;96601.33;108511;1268;22549;-77
2022/08/05 10:35:13;;;;;;;3.60;3.30;;;;;;;32.55;34.18;96603.94;108453;1268;22588;-77
2022/08/05 10:37:47;;;;;;;4.70;3.50;;;;;;;32.47;33.92;96601.65;108399;1268;22811;-77
2022/08/05 10:40:25;;;;;;;3.50;3.20;;;;;;;32.34;35.37;96602.22;108515;1268;22643;-77
2022/08/05 10:43:16;;;;;;;3.90;3.60;;;;;;;32.09;34.32;96599.14;108520;1268;22534;-77
2022/08/05 10:46:02;;;;;;;4.30;3.80;;;;;;;31.70;35.06;96597.44;108426;1268;33896;-77
2022/08/05 10:48:41;;;;;;;4.30;3.40;;;;;;;31.61;36.05;96597.13;108412;1268;22526;-77
2022/08/05 10:51:14;;;;;;;8.30;4.10;;;;;;;31.74;36.34;96592.45;108541;1268;22562;-77
2022/08/05 10:53:52;;;;;;;4.40;3.90;;;;;;;31.89;36.71;96588.45;108498;1268;24144;-77
2022/08/05 10:56:26;;;;;;;5.10;3.70;;;;;;;32.09;36.77;96586.13;108448;1268;37000;-77
2022/08/05 10:59:08;;;;;;;3.50;3.20;;;;;;;32.30;36.68;96586.61;108513;1268;22599;-77
2022/08/05 11:01:43;;;;;;;6.40;3.20;;;;;;;32.29;35.83;96583.27;108538;1268;22706;-77
2022/08/05 11:04:16;;;;;;;3.90;3.60;;;;;;;32.28;35.97;96580.39;108379;1268;22464;-77
2022/08/05 11:07:05;;;;;;;5.30;3.40;;;;;;;32.08;35.15;96582.23;108473;1268;25341;-77
2022/08/05 11:09:43;;;;;;;3.80;3.50;;;;;;;32.15;37.25;96582.90;108502;1268;22551;-77
2022/08/05 11:12:45;;;;;;;4.20;3.50;;;;;;;32.37;36.55;96580.53;108506;1267;22536;-77
2022/08/05 11:15:27;;;;;;;5.20;3.80;;;;;;;32.49;37.10;96577.88;108537;1268;22546;-77
2022/08/05 11:18:10;;;;;;;3.90;3.40;;;;;;;32.65;37.14;96580.13;108494;1268;22686;-77
2022/08/05 11:20:44;;;;;;;4.40;3.80;;;;;;;32.80;36.34;96582.33;108522;1268;22583;-77
2022/08/05 11:23:52;;;;;;;6.40;4.10;;;;;;;32.83;36.96;96577.98;108514;1268;22573;-77
2022/08/05 11:26:25;;;;;;;4.10;3.70;;;;;;;32.92;36.76;96577.14;108037;1273;25410;-78
2022/08/05 11:28:57;;;;;;;4.30;3.70;;;;;;;32.93;36.48;96575.23;108465;1268;22547;-77
2022/08/05 11:31:35;;;;;;;6.20;3.90;;;;;;;32.92;36.48;96574.55;108472;1267;22557;-77
2022/08/05 11:34:09;;;;;;;5.70;3.90;;;;;;;32.90;36.10;96573.02;108429;1268;22554;-77
2022/08/05 11:36:53;;;;;;;4.50;3.90;;;;;;;32.60;35.75;96576.32;108410;1268;23972;-77
2022/08/05 11:39:52;;;;;;;3.60;3.30;;;;;;;32.56;36.36;96575.23;108550;1268;22523;-77
2022/08/05 11:42:29;;;;;;;5.80;3.70;;;;;;;32.47;36.10;96574.92;108419;1268;22675;-77
2022/08/05 11:45:06;;;;;;;4.10;3.70;;;;;;;32.46;36.89;96575.71;108322;1268;23845;-77
2022/08/05 11:47:39;;;;;;;4.00;3.70;;;;;;;32.58;37.76;96578.39;108276;1268;58344;-77
2022/08/05 11:50:11;;;;;;;5.60;3.90;;;;;;;32.67;37.34;96578.52;108408;1268;23087;-77
2022/08/05 11:52:43;;;;;;;4.60;3.40;;;;;;;32.72;37.56;96577.77;108340;1268;22513;-77
2022/08/05 11:55:14;;;;;;;4.10;3.70;;;;;;;32.77;36.82;96578.06;108557;1268;22546;-77
2022/08/05 11:57:49;;;;;;;4.50;4.10;;;;;;;32.40;35.63;96577.09;108486;1266;22738;-77
2022/08/05 12:00:32;;;;;;;3.80;3.50;;;;;;;31.87;36.80;96574.16;108436;1268;24590;-77
2022/08/05 12:03:17;;;;;;;4.10;3.60;;;;;;;31.78;36.51;96571.41;108478;1268;24383;-77
2022/08/05 12:05:50;;;;;;;4.00;3.50;;;;;;;31.62;37.69;96566.08;108289;1268;26550;-78